LGRP/RHO METAR and TAF weather

Enter ICAO airport designator
Station Type Date Time Source
LGRP METAR 2020/04/05 18:50 UTC NOAA

LGRP 051850Z 22008KT 9999 FEW015 SCT025 16/14 Q1010 NOSIG


Station Type Date Time Source
LGRP Decoded METAR 2020/04/05 18:50 UTC NOAA

Rhodes Airport , Greece (LGRP) 36-24N 028-05E 11M
Apr 05, 2020 - 02:50 PM EDT / 2020.04.05 1850 UTC
Wind: from the SW (220 degrees) at 9 MPH (8 KT):0
Visibility: greater than 7 mile(s):0
Sky conditions: partly cloudy
Temperature: 60 F (16 C)
Dew Point: 57 F (14 C)
Relative Humidity: 87%
Pressure (altimeter): 29.83 in. Hg (1010 hPa)
ob: LGRP 051850Z 22008KT 9999 FEW015 SCT025 16/14 Q1010 NOSIG
cycle: 19

Station Type Date Time Source
LGRP TAF 2020/04/05 18:12 UTC NOAA

TAF LGRP 051700Z 0518/0618 24018KT 9999 SCT025 BKN050 PROB30
TEMPO 0609/0612 5000 RA FEW018TCU BKN020

Example: see airport list